sensor_id;sensor_type;location;lat;lon;timestamp;P1;durP1;ratioP1;P2;durP2;ratioP2
73859;SDS011;62197;51.632;13.700;2023-02-15T00:01:06;42.78;;;16.60;;
73859;SDS011;62197;51.632;13.700;2023-02-15T00:03:33;40.45;;;16.83;;
73859;SDS011;62197;51.632;13.700;2023-02-15T00:05:58;46.00;;;17.92;;
73859;SDS011;62197;51.632;13.700;2023-02-15T00:08:23;45.58;;;15.57;;
73859;SDS011;62197;51.632;13.700;2023-02-15T00:10:49;48.90;;;18.02;;
73859;SDS011;62197;51.632;13.700;2023-02-15T00:13:14;42.58;;;15.23;;
73859;SDS011;62197;51.632;13.700;2023-02-15T00:15:39;44.35;;;15.73;;
73859;SDS011;62197;51.632;13.700;2023-02-15T00:18:05;47.97;;;16.15;;
73859;SDS011;62197;51.632;13.700;2023-02-15T00:20:30;43.97;;;16.73;;
73859;SDS011;62197;51.632;13.700;2023-02-15T00:22:55;47.00;;;17.48;;
73859;SDS011;62197;51.632;13.700;2023-02-15T00:25:21;46.30;;;16.27;;
73859;SDS011;62197;51.632;13.700;2023-02-15T00:27:46;50.08;;;17.05;;
73859;SDS011;62197;51.632;13.700;2023-02-15T00:30:11;47.38;;;16.27;;
73859;SDS011;62197;51.632;13.700;2023-02-15T00:32:37;40.95;;;14.15;;
73859;SDS011;62197;51.632;13.700;2023-02-15T00:35:02;43.92;;;14.57;;
73859;SDS011;62197;51.632;13.700;2023-02-15T00:37:28;50.10;;;17.02;;
73859;SDS011;62197;51.632;13.700;2023-02-15T00:39:53;46.22;;;15.88;;
73859;SDS011;62197;51.632;13.700;2023-02-15T00:42:18;44.70;;;16.13;;
73859;SDS011;62197;51.632;13.700;2023-02-15T00:44:44;42.42;;;15.85;;
73859;SDS011;62197;51.632;13.700;2023-02-15T00:47:09;43.17;;;15.40;;
73859;SDS011;62197;51.632;13.700;2023-02-15T00:49:34;45.20;;;18.08;;
73859;SDS011;62197;51.632;13.700;2023-02-15T00:52:00;41.58;;;17.02;;
73859;SDS011;62197;51.632;13.700;2023-02-15T00:54:25;52.25;;;18.60;;
73859;SDS011;62197;51.632;13.700;2023-02-15T00:56:50;47.08;;;17.58;;
73859;SDS011;62197;51.632;13.700;2023-02-15T00:59:16;47.50;;;17.83;;
73859;SDS011;62197;51.632;13.700;2023-02-15T01:01:41;54.65;;;20.13;;
73859;SDS011;62197;51.632;13.700;2023-02-15T01:04:06;64.88;;;23.65;;
73859;SDS011;62197;51.632;13.700;2023-02-15T01:06:32;65.75;;;24.23;;
73859;SDS011;62197;51.632;13.700;2023-02-15T01:08:57;71.35;;;26.20;;
73859;SDS011;62197;51.632;13.700;2023-02-15T01:11:22;71.57;;;29.77;;
73859;SDS011;62197;51.632;13.700;2023-02-15T01:13:49;64.25;;;26.52;;
73859;SDS011;62197;51.632;13.700;2023-02-15T01:16:18;71.35;;;28.35;;
73859;SDS011;62197;51.632;13.700;2023-02-15T01:18:44;68.10;;;27.05;;
73859;SDS011;62197;51.632;13.700;2023-02-15T01:21:10;77.80;;;29.60;;
73859;SDS011;62197;51.632;13.700;2023-02-15T01:23:38;71.65;;;25.55;;
73859;SDS011;62197;51.632;13.700;2023-02-15T01:26:04;69.82;;;25.60;;
73859;SDS011;62197;51.632;13.700;2023-02-15T01:28:30;64.40;;;25.80;;
73859;SDS011;62197;51.632;13.700;2023-02-15T01:30:56;57.83;;;24.17;;
73859;SDS011;62197;51.632;13.700;2023-02-15T01:33:21;59.28;;;22.27;;
73859;SDS011;62197;51.632;13.700;2023-02-15T01:35:46;61.80;;;21.50;;
73859;SDS011;62197;51.632;13.700;2023-02-15T01:38:12;55.30;;;21.20;;
73859;SDS011;62197;51.632;13.700;2023-02-15T01:40:38;49.45;;;19.00;;
73859;SDS011;62197;51.632;13.700;2023-02-15T01:43:07;47.20;;;17.00;;
73859;SDS011;62197;51.632;13.700;2023-02-15T01:45:35;53.60;;;18.40;;
73859;SDS011;62197;51.632;13.700;2023-02-15T01:50:47;90.57;;;32.67;;
73859;SDS011;62197;51.632;13.700;2023-02-15T01:53:24;92.35;;;35.58;;
73859;SDS011;62197;51.632;13.700;2023-02-15T01:56:00;71.13;;;29.42;;
73859;SDS011;62197;51.632;13.700;2023-02-15T01:58:30;66.30;;;24.92;;
73859;SDS011;62197;51.632;13.700;2023-02-15T02:00:59;69.60;;;26.55;;
73859;SDS011;62197;51.632;13.700;2023-02-15T02:03:30;67.65;;;27.60;;
73859;SDS011;62197;51.632;13.700;2023-02-15T02:06:03;68.95;;;27.20;;
73859;SDS011;62197;51.632;13.700;2023-02-15T02:08:28;63.75;;;22.83;;
73859;SDS011;62197;51.632;13.700;2023-02-15T02:10:53;56.63;;;19.70;;
73859;SDS011;62197;51.632;13.700;2023-02-15T02:13:19;53.33;;;19.27;;
73859;SDS011;62197;51.632;13.700;2023-02-15T02:15:52;52.47;;;19.13;;
73859;SDS011;62197;51.632;13.700;2023-02-15T02:24:00;52.45;;;19.02;;
73859;SDS011;62197;51.632;13.700;2023-02-15T02:27:12;62.65;;;21.23;;
73859;SDS011;62197;51.632;13.700;2023-02-15T02:29:52;68.57;;;26.63;;
73859;SDS011;62197;51.632;13.700;2023-02-15T02:35:42;68.50;;;27.50;;
73859;SDS011;62197;51.632;13.700;2023-02-15T02:38:26;80.20;;;29.60;;
73859;SDS011;62197;51.632;13.700;2023-02-15T02:41:03;88.18;;;31.42;;
73859;SDS011;62197;51.632;13.700;2023-02-15T02:46:24;66.45;;;24.92;;
73859;SDS011;62197;51.632;13.700;2023-02-15T02:48:53;70.85;;;26.08;;
73859;SDS011;62197;51.632;13.700;2023-02-15T02:51:19;87.85;;;32.65;;
73859;SDS011;62197;51.632;13.700;2023-02-15T02:53:51;84.38;;;30.80;;
73859;SDS011;62197;51.632;13.700;2023-02-15T02:56:25;85.60;;;32.83;;
73859;SDS011;62197;51.632;13.700;2023-02-15T02:59:40;88.45;;;30.45;;
73859;SDS011;62197;51.632;13.700;2023-02-15T03:01:52;86.75;;;31.67;;
73859;SDS011;62197;51.632;13.700;2023-02-15T03:04:25;93.15;;;36.45;;
73859;SDS011;62197;51.632;13.700;2023-02-15T03:07:00;101.43;;;35.17;;
73859;SDS011;62197;51.632;13.700;2023-02-15T03:09:31;79.43;;;29.65;;
73859;SDS011;62197;51.632;13.700;2023-02-15T03:12:09;83.40;;;29.98;;
73859;SDS011;62197;51.632;13.700;2023-02-15T03:14:38;69.85;;;26.98;;
73859;SDS011;62197;51.632;13.700;2023-02-15T03:17:06;69.88;;;24.25;;
73859;SDS011;62197;51.632;13.700;2023-02-15T03:19:34;55.60;;;22.65;;
73859;SDS011;62197;51.632;13.700;2023-02-15T03:22:12;57.47;;;20.45;;
73859;SDS011;62197;51.632;13.700;2023-02-15T03:24:54;46.67;;;19.90;;
73859;SDS011;62197;51.632;13.700;2023-02-15T03:27:45;55.28;;;19.05;;
73859;SDS011;62197;51.632;13.700;2023-02-15T03:30:14;53.88;;;21.70;;
73859;SDS011;62197;51.632;13.700;2023-02-15T03:32:42;52.80;;;20.00;;
73859;SDS011;62197;51.632;13.700;2023-02-15T03:35:08;60.47;;;20.27;;
73859;SDS011;62197;51.632;13.700;2023-02-15T03:37:36;50.42;;;19.75;;
73859;SDS011;62197;51.632;13.700;2023-02-15T03:40:10;52.20;;;19.00;;
73859;SDS011;62197;51.632;13.700;2023-02-15T03:43:04;55.65;;;20.58;;
73859;SDS011;62197;51.632;13.700;2023-02-15T03:45:39;56.38;;;20.50;;
73859;SDS011;62197;51.632;13.700;2023-02-15T03:48:19;55.28;;;21.75;;
73859;SDS011;62197;51.632;13.700;2023-02-15T03:50:49;55.03;;;19.17;;
73859;SDS011;62197;51.632;13.700;2023-02-15T03:53:35;46.88;;;17.90;;
73859;SDS011;62197;51.632;13.700;2023-02-15T03:58:27;47.83;;;14.45;;
73859;SDS011;62197;51.632;13.700;2023-02-15T04:01:13;47.70;;;16.02;;
73859;SDS011;62197;51.632;13.700;2023-02-15T04:04:13;45.55;;;16.45;;
73859;SDS011;62197;51.632;13.700;2023-02-15T04:06:49;55.28;;;16.92;;
73859;SDS011;62197;51.632;13.700;2023-02-15T04:09:15;53.38;;;16.67;;
73859;SDS011;62197;51.632;13.700;2023-02-15T04:11:58;71.05;;;22.98;;
73859;SDS011;62197;51.632;13.700;2023-02-15T04:14:24;55.67;;;19.35;;
73859;SDS011;62197;51.632;13.700;2023-02-15T04:17:08;52.17;;;17.60;;
73859;SDS011;62197;51.632;13.700;2023-02-15T04:19:34;52.08;;;17.10;;
73859;SDS011;62197;51.632;13.700;2023-02-15T04:22:17;60.00;;;18.60;;
73859;SDS011;62197;51.632;13.700;2023-02-15T04:25:02;51.28;;;17.05;;
73859;SDS011;62197;51.632;13.700;2023-02-15T04:27:43;58.33;;;18.38;;
73859;SDS011;62197;51.632;13.700;2023-02-15T04:30:10;62.35;;;19.52;;
73859;SDS011;62197;51.632;13.700;2023-02-15T04:32:37;60.33;;;19.55;;
73859;SDS011;62197;51.632;13.700;2023-02-15T04:35:03;64.38;;;20.65;;
73859;SDS011;62197;51.632;13.700;2023-02-15T04:37:30;55.15;;;16.90;;
73859;SDS011;62197;51.632;13.700;2023-02-15T04:39:56;60.38;;;18.10;;
73859;SDS011;62197;51.632;13.700;2023-02-15T04:42:23;53.60;;;18.10;;
73859;SDS011;62197;51.632;13.700;2023-02-15T04:44:50;54.95;;;17.42;;
73859;SDS011;62197;51.632;13.700;2023-02-15T04:47:15;52.97;;;16.27;;
73859;SDS011;62197;51.632;13.700;2023-02-15T04:49:40;56.88;;;17.90;;
73859;SDS011;62197;51.632;13.700;2023-02-15T04:52:06;60.53;;;18.55;;
73859;SDS011;62197;51.632;13.700;2023-02-15T04:54:31;55.58;;;19.52;;
73859;SDS011;62197;51.632;13.700;2023-02-15T04:56:56;57.40;;;19.42;;
73859;SDS011;62197;51.632;13.700;2023-02-15T04:59:22;54.97;;;19.27;;
73859;SDS011;62197;51.632;13.700;2023-02-15T05:01:47;54.67;;;18.65;;
73859;SDS011;62197;51.632;13.700;2023-02-15T05:04:12;61.03;;;20.38;;
73859;SDS011;62197;51.632;13.700;2023-02-15T05:06:38;77.25;;;21.40;;
73859;SDS011;62197;51.632;13.700;2023-02-15T05:09:03;80.93;;;23.23;;
73859;SDS011;62197;51.632;13.700;2023-02-15T05:11:28;116.88;;;30.90;;
73859;SDS011;62197;51.632;13.700;2023-02-15T05:13:54;131.15;;;34.22;;
73859;SDS011;62197;51.632;13.700;2023-02-15T05:16:19;87.32;;;29.20;;
73859;SDS011;62197;51.632;13.700;2023-02-15T05:18:44;63.88;;;22.38;;
73859;SDS011;62197;51.632;13.700;2023-02-15T05:21:10;68.43;;;23.20;;
73859;SDS011;62197;51.632;13.700;2023-02-15T05:23:35;55.30;;;19.48;;
73859;SDS011;62197;51.632;13.700;2023-02-15T05:26:01;60.08;;;18.52;;
73859;SDS011;62197;51.632;13.700;2023-02-15T05:28:46;51.67;;;18.42;;
73859;SDS011;62197;51.632;13.700;2023-02-15T05:33:39;62.38;;;22.73;;
73859;SDS011;62197;51.632;13.700;2023-02-15T05:36:05;56.60;;;20.30;;
73859;SDS011;62197;51.632;13.700;2023-02-15T05:38:31;52.67;;;16.48;;
73859;SDS011;62197;51.632;13.700;2023-02-15T05:40:56;51.13;;;16.45;;
73859;SDS011;62197;51.632;13.700;2023-02-15T05:43:22;56.67;;;19.25;;
73859;SDS011;62197;51.632;13.700;2023-02-15T05:45:52;50.05;;;16.98;;
73859;SDS011;62197;51.632;13.700;2023-02-15T05:48:19;55.75;;;16.73;;
73859;SDS011;62197;51.632;13.700;2023-02-15T05:50:46;50.25;;;16.45;;
73859;SDS011;62197;51.632;13.700;2023-02-15T05:53:21;61.03;;;18.08;;
73859;SDS011;62197;51.632;13.700;2023-02-15T05:55:46;67.18;;;20.40;;
73859;SDS011;62197;51.632;13.700;2023-02-15T05:58:11;52.85;;;18.42;;
73859;SDS011;62197;51.632;13.700;2023-02-15T06:00:37;50.45;;;17.10;;
73859;SDS011;62197;51.632;13.700;2023-02-15T06:03:02;60.38;;;19.75;;
73859;SDS011;62197;51.632;13.700;2023-02-15T06:05:28;57.65;;;20.90;;
73859;SDS011;62197;51.632;13.700;2023-02-15T06:07:53;58.70;;;19.10;;
73859;SDS011;62197;51.632;13.700;2023-02-15T06:10:18;65.22;;;20.50;;
73859;SDS011;62197;51.632;13.700;2023-02-15T06:12:44;58.83;;;17.80;;
73859;SDS011;62197;51.632;13.700;2023-02-15T06:15:10;61.47;;;18.75;;
73859;SDS011;62197;51.632;13.700;2023-02-15T06:17:35;68.22;;;20.80;;
73859;SDS011;62197;51.632;13.700;2023-02-15T06:20:00;61.67;;;20.33;;
73859;SDS011;62197;51.632;13.700;2023-02-15T06:22:26;57.67;;;19.25;;
73859;SDS011;62197;51.632;13.700;2023-02-15T06:24:51;75.28;;;22.35;;
73859;SDS011;62197;51.632;13.700;2023-02-15T06:27:16;61.22;;;20.50;;
73859;SDS011;62197;51.632;13.700;2023-02-15T06:29:42;61.90;;;19.13;;
73859;SDS011;62197;51.632;13.700;2023-02-15T06:32:07;58.92;;;18.35;;
73859;SDS011;62197;51.632;13.700;2023-02-15T06:34:32;56.72;;;17.05;;
73859;SDS011;62197;51.632;13.700;2023-02-15T06:36:58;56.97;;;18.00;;
73859;SDS011;62197;51.632;13.700;2023-02-15T06:39:23;53.47;;;17.70;;
73859;SDS011;62197;51.632;13.700;2023-02-15T06:41:48;53.22;;;18.33;;
73859;SDS011;62197;51.632;13.700;2023-02-15T06:44:14;57.78;;;20.02;;
73859;SDS011;62197;51.632;13.700;2023-02-15T06:46:39;64.00;;;19.75;;
73859;SDS011;62197;51.632;13.700;2023-02-15T06:49:05;62.95;;;22.17;;
73859;SDS011;62197;51.632;13.700;2023-02-15T06:51:30;60.60;;;21.10;;
73859;SDS011;62197;51.632;13.700;2023-02-15T06:53:55;58.88;;;19.02;;
73859;SDS011;62197;51.632;13.700;2023-02-15T06:56:21;62.10;;;21.05;;
73859;SDS011;62197;51.632;13.700;2023-02-15T06:58:46;70.32;;;20.67;;
73859;SDS011;62197;51.632;13.700;2023-02-15T07:01:14;70.20;;;22.50;;
73859;SDS011;62197;51.632;13.700;2023-02-15T07:03:39;67.68;;;22.13;;
73859;SDS011;62197;51.632;13.700;2023-02-15T07:06:04;78.45;;;21.58;;
73859;SDS011;62197;51.632;13.700;2023-02-15T07:08:33;66.68;;;20.83;;
73859;SDS011;62197;51.632;13.700;2023-02-15T07:10:59;68.47;;;22.85;;
73859;SDS011;62197;51.632;13.700;2023-02-15T07:13:44;64.10;;;22.08;;
73859;SDS011;62197;51.632;13.700;2023-02-15T07:16:10;72.22;;;21.27;;
73859;SDS011;62197;51.632;13.700;2023-02-15T07:18:35;78.05;;;22.48;;
73859;SDS011;62197;51.632;13.700;2023-02-15T07:21:01;72.85;;;21.65;;
73859;SDS011;62197;51.632;13.700;2023-02-15T07:23:26;69.35;;;23.83;;
73859;SDS011;62197;51.632;13.700;2023-02-15T07:25:59;68.72;;;21.17;;
73859;SDS011;62197;51.632;13.700;2023-02-15T07:28:25;67.05;;;21.83;;
73859;SDS011;62197;51.632;13.700;2023-02-15T07:30:50;66.90;;;22.92;;
73859;SDS011;62197;51.632;13.700;2023-02-15T07:33:16;76.38;;;24.92;;
73859;SDS011;62197;51.632;13.700;2023-02-15T07:35:51;71.18;;;23.15;;
73859;SDS011;62197;51.632;13.700;2023-02-15T07:38:19;68.85;;;20.67;;
73859;SDS011;62197;51.632;13.700;2023-02-15T07:40:45;68.55;;;21.63;;
73859;SDS011;62197;51.632;13.700;2023-02-15T07:43:10;69.93;;;21.80;;
73859;SDS011;62197;51.632;13.700;2023-02-15T07:48:02;61.93;;;19.17;;
73859;SDS011;62197;51.632;13.700;2023-02-15T07:50:28;45.60;;;14.07;;
73859;SDS011;62197;51.632;13.700;2023-02-15T07:52:53;121.22;;;32.90;;
73859;SDS011;62197;51.632;13.700;2023-02-15T07:55:19;77.70;;;25.92;;
73859;SDS011;62197;51.632;13.700;2023-02-15T07:57:45;72.45;;;22.45;;
73859;SDS011;62197;51.632;13.700;2023-02-15T08:00:12;77.03;;;23.55;;
73859;SDS011;62197;51.632;13.700;2023-02-15T08:02:39;60.45;;;21.15;;
73859;SDS011;62197;51.632;13.700;2023-02-15T08:05:04;65.70;;;23.30;;
73859;SDS011;62197;51.632;13.700;2023-02-15T08:07:30;58.53;;;21.23;;
73859;SDS011;62197;51.632;13.700;2023-02-15T08:09:55;59.97;;;22.00;;
73859;SDS011;62197;51.632;13.700;2023-02-15T08:12:21;53.92;;;20.65;;
73859;SDS011;62197;51.632;13.700;2023-02-15T08:14:46;47.80;;;21.15;;
73859;SDS011;62197;51.632;13.700;2023-02-15T08:17:11;55.33;;;21.27;;
73859;SDS011;62197;51.632;13.700;2023-02-15T08:19:37;48.05;;;19.48;;
73859;SDS011;62197;51.632;13.700;2023-02-15T08:22:03;42.38;;;16.77;;
73859;SDS011;62197;51.632;13.700;2023-02-15T08:24:32;48.88;;;18.73;;
73859;SDS011;62197;51.632;13.700;2023-02-15T08:26:58;47.33;;;17.80;;
73859;SDS011;62197;51.632;13.700;2023-02-15T08:29:25;47.00;;;19.52;;
73859;SDS011;62197;51.632;13.700;2023-02-15T08:31:53;54.28;;;20.63;;
73859;SDS011;62197;51.632;13.700;2023-02-15T08:34:19;50.45;;;19.80;;
73859;SDS011;62197;51.632;13.700;2023-02-15T08:36:45;52.95;;;20.38;;
73859;SDS011;62197;51.632;13.700;2023-02-15T08:39:11;45.58;;;19.35;;
73859;SDS011;62197;51.632;13.700;2023-02-15T08:41:38;49.13;;;18.08;;
73859;SDS011;62197;51.632;13.700;2023-02-15T08:44:05;50.28;;;19.45;;
73859;SDS011;62197;51.632;13.700;2023-02-15T08:46:33;49.25;;;18.10;;
73859;SDS011;62197;51.632;13.700;2023-02-15T08:49:00;48.88;;;18.67;;
73859;SDS011;62197;51.632;13.700;2023-02-15T08:51:28;52.60;;;18.20;;
73859;SDS011;62197;51.632;13.700;2023-02-15T08:53:56;46.90;;;18.30;;
73859;SDS011;62197;51.632;13.700;2023-02-15T08:56:24;33.83;;;13.20;;
73859;SDS011;62197;51.632;13.700;2023-02-15T08:58:55;42.85;;;16.15;;
73859;SDS011;62197;51.632;13.700;2023-02-15T09:01:25;48.97;;;17.33;;
73859;SDS011;62197;51.632;13.700;2023-02-15T09:03:55;42.15;;;17.15;;
73859;SDS011;62197;51.632;13.700;2023-02-15T09:06:22;44.05;;;16.02;;
73859;SDS011;62197;51.632;13.700;2023-02-15T09:08:48;46.88;;;17.48;;
73859;SDS011;62197;51.632;13.700;2023-02-15T09:11:15;40.53;;;14.90;;
73859;SDS011;62197;51.632;13.700;2023-02-15T09:13:47;43.05;;;15.88;;
73859;SDS011;62197;51.632;13.700;2023-02-15T09:16:13;45.30;;;17.10;;
73859;SDS011;62197;51.632;13.700;2023-02-15T09:18:41;36.78;;;14.57;;
73859;SDS011;62197;51.632;13.700;2023-02-15T09:21:11;46.33;;;15.88;;
73859;SDS011;62197;51.632;13.700;2023-02-15T09:23:41;36.13;;;14.35;;
73859;SDS011;62197;51.632;13.700;2023-02-15T09:26:11;42.53;;;15.75;;
73859;SDS011;62197;51.632;13.700;2023-02-15T09:28:38;42.33;;;15.98;;
73859;SDS011;62197;51.632;13.700;2023-02-15T09:33:41;43.42;;;15.00;;
73859;SDS011;62197;51.632;13.700;2023-02-15T09:36:15;34.45;;;14.32;;
73859;SDS011;62197;51.632;13.700;2023-02-15T09:38:42;38.75;;;13.80;;
73859;SDS011;62197;51.632;13.700;2023-02-15T09:44:25;31.30;;;12.77;;
73859;SDS011;62197;51.632;13.700;2023-02-15T09:47:05;27.23;;;12.07;;
73859;SDS011;62197;51.632;13.700;2023-02-15T09:52:43;24.33;;;10.75;;
73859;SDS011;62197;51.632;13.700;2023-02-15T09:58:19;30.83;;;12.23;;
73859;SDS011;62197;51.632;13.700;2023-02-15T10:14:52;27.67;;;11.05;;
73859;SDS011;62197;51.632;13.700;2023-02-15T10:20:09;30.10;;;11.55;;
73859;SDS011;62197;51.632;13.700;2023-02-15T10:23:18;26.42;;;11.00;;
73859;SDS011;62197;51.632;13.700;2023-02-15T10:26:17;23.95;;;10.80;;
73859;SDS011;62197;51.632;13.700;2023-02-15T10:31:19;28.02;;;11.30;;
73859;SDS011;62197;51.632;13.700;2023-02-15T10:33:50;26.90;;;10.68;;
73859;SDS011;62197;51.632;13.700;2023-02-15T10:42:00;22.75;;;9.35;;
73859;SDS011;62197;51.632;13.700;2023-02-15T10:47:42;24.98;;;9.88;;
73859;SDS011;62197;51.632;13.700;2023-02-15T10:55:55;22.63;;;8.95;;
73859;SDS011;62197;51.632;13.700;2023-02-15T11:01:40;24.88;;;9.00;;
73859;SDS011;62197;51.632;13.700;2023-02-15T11:06:35;21.58;;;9.18;;
73859;SDS011;62197;51.632;13.700;2023-02-15T11:09:07;20.85;;;8.80;;
73859;SDS011;62197;51.632;13.700;2023-02-15T11:11:36;18.23;;;7.97;;
73859;SDS011;62197;51.632;13.700;2023-02-15T11:14:14;19.10;;;8.55;;
73859;SDS011;62197;51.632;13.700;2023-02-15T11:16:40;27.30;;;9.20;;
73859;SDS011;62197;51.632;13.700;2023-02-15T11:19:11;15.48;;;8.10;;
73859;SDS011;62197;51.632;13.700;2023-02-15T11:21:45;19.00;;;8.10;;
73859;SDS011;62197;51.632;13.700;2023-02-15T11:24:15;14.82;;;7.88;;
73859;SDS011;62197;51.632;13.700;2023-02-15T11:26:44;17.17;;;7.38;;
73859;SDS011;62197;51.632;13.700;2023-02-15T11:29:18;14.07;;;6.85;;
73859;SDS011;62197;51.632;13.700;2023-02-15T11:31:59;15.38;;;7.03;;
73859;SDS011;62197;51.632;13.700;2023-02-15T11:34:29;14.13;;;7.40;;
73859;SDS011;62197;51.632;13.700;2023-02-15T11:37:01;16.42;;;7.80;;
73859;SDS011;62197;51.632;13.700;2023-02-15T11:39:31;19.35;;;8.07;;
73859;SDS011;62197;51.632;13.700;2023-02-15T11:42:04;17.58;;;8.25;;
73859;SDS011;62197;51.632;13.700;2023-02-15T11:44:40;13.93;;;6.93;;
73859;SDS011;62197;51.632;13.700;2023-02-15T11:47:14;10.82;;;5.60;;
73859;SDS011;62197;51.632;13.700;2023-02-15T11:49:40;13.93;;;6.57;;
73859;SDS011;62197;51.632;13.700;2023-02-15T11:52:06;12.70;;;6.85;;
73859;SDS011;62197;51.632;13.700;2023-02-15T11:54:36;12.13;;;6.18;;
73859;SDS011;62197;51.632;13.700;2023-02-15T11:57:15;11.65;;;6.28;;
73859;SDS011;62197;51.632;13.700;2023-02-15T11:59:52;13.57;;;7.22;;
73859;SDS011;62197;51.632;13.700;2023-02-15T12:02:35;12.93;;;6.78;;
73859;SDS011;62197;51.632;13.700;2023-02-15T12:05:03;12.55;;;5.45;;
73859;SDS011;62197;51.632;13.700;2023-02-15T12:07:35;11.30;;;5.90;;
73859;SDS011;62197;51.632;13.700;2023-02-15T12:13:08;11.70;;;5.88;;
73859;SDS011;62197;51.632;13.700;2023-02-15T12:15:36;10.98;;;5.80;;
73859;SDS011;62197;51.632;13.700;2023-02-15T12:18:02;9.75;;;4.97;;
73859;SDS011;62197;51.632;13.700;2023-02-15T12:20:32;10.02;;;5.60;;
73859;SDS011;62197;51.632;13.700;2023-02-15T12:23:11;11.45;;;5.78;;
73859;SDS011;62197;51.632;13.700;2023-02-15T12:25:42;10.25;;;5.20;;
73859;SDS011;62197;51.632;13.700;2023-02-15T12:30:52;11.07;;;5.18;;
73859;SDS011;62197;51.632;13.700;2023-02-15T12:33:39;11.48;;;5.47;;
73859;SDS011;62197;51.632;13.700;2023-02-15T12:38:41;12.82;;;5.72;;
73859;SDS011;62197;51.632;13.700;2023-02-15T12:41:23;11.98;;;5.68;;
73859;SDS011;62197;51.632;13.700;2023-02-15T12:44:03;10.82;;;5.80;;
73859;SDS011;62197;51.632;13.700;2023-02-15T12:46:30;10.13;;;5.45;;
73859;SDS011;62197;51.632;13.700;2023-02-15T12:49:16;9.65;;;4.97;;
73859;SDS011;62197;51.632;13.700;2023-02-15T12:51:44;9.52;;;4.75;;
73859;SDS011;62197;51.632;13.700;2023-02-15T12:54:22;9.90;;;5.25;;
73859;SDS011;62197;51.632;13.700;2023-02-15T13:02:15;8.32;;;3.88;;
73859;SDS011;62197;51.632;13.700;2023-02-15T13:04:51;8.00;;;4.00;;
73859;SDS011;62197;51.632;13.700;2023-02-15T13:07:18;7.88;;;3.80;;
73859;SDS011;62197;51.632;13.700;2023-02-15T13:09:43;9.73;;;4.50;;
73859;SDS011;62197;51.632;13.700;2023-02-15T13:12:17;7.13;;;4.05;;
73859;SDS011;62197;51.632;13.700;2023-02-15T13:14:46;7.05;;;3.67;;
73859;SDS011;62197;51.632;13.700;2023-02-15T13:17:15;7.70;;;3.63;;
73859;SDS011;62197;51.632;13.700;2023-02-15T13:22:20;6.78;;;4.07;;
73859;SDS011;62197;51.632;13.700;2023-02-15T13:24:51;6.97;;;3.38;;
73859;SDS011;62197;51.632;13.700;2023-02-15T13:27:21;6.10;;;3.42;;
73859;SDS011;62197;51.632;13.700;2023-02-15T13:29:50;8.25;;;3.70;;
73859;SDS011;62197;51.632;13.700;2023-02-15T13:32:34;7.25;;;4.10;;
73859;SDS011;62197;51.632;13.700;2023-02-15T13:35:03;9.32;;;4.13;;
73859;SDS011;62197;51.632;13.700;2023-02-15T13:40:25;9.00;;;4.13;;
73859;SDS011;62197;51.632;13.700;2023-02-15T13:45:56;6.38;;;3.90;;
73859;SDS011;62197;51.632;13.700;2023-02-15T14:04:34;10.63;;;4.85;;
73859;SDS011;62197;51.632;13.700;2023-02-15T14:07:16;6.28;;;3.90;;
73859;SDS011;62197;51.632;13.700;2023-02-15T14:18:02;8.45;;;4.47;;
73859;SDS011;62197;51.632;13.700;2023-02-15T14:23:24;9.70;;;4.57;;
73859;SDS011;62197;51.632;13.700;2023-02-15T14:26:16;9.07;;;4.05;;
73859;SDS011;62197;51.632;13.700;2023-02-15T14:28:49;8.13;;;4.50;;
73859;SDS011;62197;51.632;13.700;2023-02-15T14:31:30;8.27;;;4.32;;
73859;SDS011;62197;51.632;13.700;2023-02-15T14:34:00;7.70;;;3.70;;
73859;SDS011;62197;51.632;13.700;2023-02-15T14:36:25;7.65;;;3.72;;
73859;SDS011;62197;51.632;13.700;2023-02-15T14:45:25;7.45;;;4.00;;
73859;SDS011;62197;51.632;13.700;2023-02-15T14:48:28;8.52;;;3.97;;
73859;SDS011;62197;51.632;13.700;2023-02-15T14:50:56;8.50;;;3.92;;
73859;SDS011;62197;51.632;13.700;2023-02-15T14:55:47;8.98;;;4.25;;
73859;SDS011;62197;51.632;13.700;2023-02-15T14:58:29;6.75;;;3.92;;
73859;SDS011;62197;51.632;13.700;2023-02-15T15:00:54;8.30;;;3.72;;
73859;SDS011;62197;51.632;13.700;2023-02-15T15:03:30;7.13;;;3.28;;
73859;SDS011;62197;51.632;13.700;2023-02-15T15:05:56;8.48;;;4.50;;
73859;SDS011;62197;51.632;13.700;2023-02-15T15:14:02;8.95;;;3.80;;
73859;SDS011;62197;51.632;13.700;2023-02-15T15:16:29;9.80;;;3.90;;
73859;SDS011;62197;51.632;13.700;2023-02-15T15:19:02;8.07;;;4.30;;
73859;SDS011;62197;51.632;13.700;2023-02-15T15:32:38;9.38;;;4.75;;
73859;SDS011;62197;51.632;13.700;2023-02-15T15:38:13;13.48;;;7.30;;
73859;SDS011;62197;51.632;13.700;2023-02-15T15:46:25;12.95;;;6.30;;
73859;SDS011;62197;51.632;13.700;2023-02-15T15:49:15;11.15;;;6.03;;
73859;SDS011;62197;51.632;13.700;2023-02-15T15:51:42;13.65;;;5.75;;
73859;SDS011;62197;51.632;13.700;2023-02-15T15:54:17;10.05;;;4.63;;
73859;SDS011;62197;51.632;13.700;2023-02-15T15:56:46;10.80;;;5.05;;
73859;SDS011;62197;51.632;13.700;2023-02-15T15:59:22;11.60;;;6.30;;
73859;SDS011;62197;51.632;13.700;2023-02-15T16:01:53;13.75;;;6.43;;
73859;SDS011;62197;51.632;13.700;2023-02-15T16:04:23;12.40;;;5.82;;
73859;SDS011;62197;51.632;13.700;2023-02-15T16:06:54;10.95;;;5.38;;
73859;SDS011;62197;51.632;13.700;2023-02-15T16:09:25;15.63;;;6.93;;
73859;SDS011;62197;51.632;13.700;2023-02-15T16:11:52;16.60;;;7.85;;
73859;SDS011;62197;51.632;13.700;2023-02-15T16:14:27;18.63;;;8.80;;
73859;SDS011;62197;51.632;13.700;2023-02-15T16:16:59;16.90;;;8.10;;
73859;SDS011;62197;51.632;13.700;2023-02-15T16:19:29;15.88;;;7.68;;
73859;SDS011;62197;51.632;13.700;2023-02-15T16:21:58;16.80;;;8.38;;
73859;SDS011;62197;51.632;13.700;2023-02-15T16:24:48;18.38;;;8.00;;
73859;SDS011;62197;51.632;13.700;2023-02-15T16:27:36;17.67;;;8.38;;
73859;SDS011;62197;51.632;13.700;2023-02-15T16:30:16;19.65;;;8.43;;
73859;SDS011;62197;51.632;13.700;2023-02-15T16:32:46;19.95;;;8.88;;
73859;SDS011;62197;51.632;13.700;2023-02-15T16:37:39;21.23;;;9.43;;
73859;SDS011;62197;51.632;13.700;2023-02-15T16:42:30;20.23;;;9.15;;
73859;SDS011;62197;51.632;13.700;2023-02-15T16:47:27;21.98;;;8.52;;
73859;SDS011;62197;51.632;13.700;2023-02-15T16:49:57;22.63;;;10.38;;
73859;SDS011;62197;51.632;13.700;2023-02-15T16:52:26;20.63;;;9.18;;
73859;SDS011;62197;51.632;13.700;2023-02-15T16:54:56;25.45;;;10.90;;
73859;SDS011;62197;51.632;13.700;2023-02-15T16:57:32;24.00;;;11.35;;
73859;SDS011;62197;51.632;13.700;2023-02-15T17:00:14;25.17;;;11.90;;
73859;SDS011;62197;51.632;13.700;2023-02-15T17:02:52;23.05;;;11.07;;
73859;SDS011;62197;51.632;13.700;2023-02-15T17:05:20;25.48;;;10.38;;
73859;SDS011;62197;51.632;13.700;2023-02-15T17:14:10;23.88;;;10.90;;
73859;SDS011;62197;51.632;13.700;2023-02-15T17:16:28;24.45;;;10.45;;
73859;SDS011;62197;51.632;13.700;2023-02-15T17:19:01;22.70;;;10.60;;
73859;SDS011;62197;51.632;13.700;2023-02-15T17:21:33;25.95;;;10.35;;